createdAt,value
2018-01-07T00:00:05.129Z,4.03
2018-01-07T00:01:05.120Z,4.07
2018-01-07T00:02:05.118Z,4.06
2018-01-07T00:03:05.115Z,4.07
2018-01-07T00:04:05.105Z,4.07
2018-01-07T00:05:05.106Z,4.04
2018-01-07T00:06:05.095Z,4.06
2018-01-07T00:07:05.099Z,4.04
2018-01-07T00:08:05.088Z,3.94
2018-01-07T00:09:05.085Z,3.92
2018-01-07T00:10:05.076Z,3.97
2018-01-07T00:11:05.072Z,3.90
2018-01-07T00:12:05.064Z,3.86
2018-01-07T00:13:05.062Z,3.78
2018-01-07T00:14:05.053Z,3.76
2018-01-07T00:15:05.057Z,3.68
2018-01-07T00:16:05.046Z,3.72
2018-01-07T00:17:05.043Z,3.76
2018-01-07T00:18:05.039Z,3.78
2018-01-07T00:19:05.029Z,3.72
2018-01-07T00:20:05.023Z,3.68
2018-01-07T00:21:05.017Z,3.78
2018-01-07T00:22:05.012Z,3.76
2018-01-07T00:23:05.007Z,3.68
2018-01-07T00:24:04.993Z,3.71
2018-01-07T00:25:05.000Z,3.67
2018-01-07T00:26:04.992Z,3.65
2018-01-07T00:27:04.985Z,3.68
2018-01-07T00:28:04.983Z,3.79
2018-01-07T00:29:04.979Z,3.68
2018-01-07T00:30:04.965Z,3.79
2018-01-07T00:31:04.967Z,3.65
2018-01-07T00:32:04.965Z,3.65
2018-01-07T00:33:04.955Z,3.62
2018-01-07T00:34:04.953Z,3.72
2018-01-07T00:35:04.948Z,3.70
2018-01-07T00:36:04.929Z,3.70
2018-01-07T00:37:04.935Z,3.60
2018-01-07T00:38:04.928Z,3.58
2018-01-07T00:39:04.916Z,3.61
2018-01-07T00:40:04.909Z,3.61
2018-01-07T00:41:04.916Z,3.65
2018-01-07T00:42:04.908Z,3.61
2018-01-07T00:43:04.903Z,3.58
2018-01-07T00:44:04.898Z,3.57
2018-01-07T00:45:04.880Z,3.68
2018-01-07T00:46:04.878Z,3.67
2018-01-07T00:47:04.884Z,3.62
2018-01-07T00:48:04.879Z,3.65
2018-01-07T00:49:04.873Z,3.65
2018-01-07T00:50:04.873Z,3.65
2018-01-07T00:51:04.863Z,3.64
2018-01-07T00:52:04.849Z,3.53
2018-01-07T00:53:04.844Z,3.61
2018-01-07T00:54:04.849Z,3.58
2018-01-07T00:55:04.848Z,3.60
2018-01-07T00:56:04.833Z,3.54
2018-01-07T00:57:04.836Z,3.49
2018-01-07T00:58:04.821Z,3.49
2018-01-07T00:59:04.826Z,3.44
2018-01-07T01:00:04.822Z,3.33
2018-01-07T01:01:04.806Z,3.42
2018-01-07T01:02:04.802Z,3.52
2018-01-07T01:03:04.806Z,3.39
2018-01-07T01:04:04.805Z,3.44
2018-01-07T01:05:04.802Z,3.34
2018-01-07T01:06:04.782Z,3.36
2018-01-07T01:07:04.786Z,3.27
2018-01-07T01:08:04.781Z,3.36
2018-01-07T01:09:04.782Z,3.42
2018-01-07T01:10:04.770Z,3.33
2018-01-07T01:11:04.760Z,3.39
2018-01-07T01:12:04.761Z,3.31
2018-01-07T01:13:04.761Z,3.31
2018-01-07T01:14:04.746Z,3.30
2018-01-07T01:15:04.744Z,3.23
2018-01-07T01:16:04.736Z,3.31
2018-01-07T01:17:04.734Z,3.25
2018-01-07T01:18:04.728Z,3.27
2018-01-07T01:19:04.722Z,3.30
2018-01-07T01:20:04.717Z,3.31
2018-01-07T01:21:04.713Z,3.23
2018-01-07T01:22:04.709Z,3.28
2018-01-07T01:23:04.704Z,3.36
2018-01-07T01:24:04.703Z,3.27
2018-01-07T01:25:04.697Z,3.36
2018-01-07T01:26:04.694Z,3.25
2018-01-07T01:27:04.688Z,3.25
2018-01-07T01:28:04.678Z,3.20
2018-01-07T01:29:04.672Z,3.27
2018-01-07T01:30:04.666Z,3.24
2018-01-07T01:31:04.663Z,3.24
2018-01-07T01:32:04.670Z,3.20
2018-01-07T01:33:04.661Z,3.23
2018-01-07T01:34:04.648Z,3.23
2018-01-07T01:35:04.642Z,3.16
2018-01-07T01:36:04.639Z,3.23
2018-01-07T01:37:04.635Z,3.21
2018-01-07T01:38:04.636Z,3.21
2018-01-07T01:39:04.623Z,3.25
2018-01-07T01:40:04.619Z,3.25
2018-01-07T01:41:04.613Z,3.23
2018-01-07T01:42:04.608Z,3.21
2018-01-07T01:43:04.606Z,3.24
2018-01-07T01:44:04.605Z,3.24
2018-01-07T01:45:04.600Z,3.24
2018-01-07T01:46:04.590Z,3.27
2018-01-07T01:47:04.585Z,3.23
2018-01-07T01:48:04.583Z,3.23
2018-01-07T01:49:04.574Z,3.23
2018-01-07T01:50:04.588Z,3.20
2018-01-07T01:51:04.564Z,3.18
2018-01-07T01:52:04.561Z,3.18
2018-01-07T01:53:04.554Z,3.16
2018-01-07T01:54:04.550Z,3.18
2018-01-07T01:55:04.545Z,3.21
2018-01-07T01:56:04.540Z,3.21
2018-01-07T01:57:04.536Z,3.21
2018-01-07T01:58:04.534Z,3.21
2018-01-07T01:59:04.525Z,3.16
2018-01-07T02:00:04.519Z,3.16
2018-01-07T02:01:04.518Z,3.23
2018-01-07T02:02:04.516Z,3.23
2018-01-07T02:03:04.506Z,3.16
2018-01-07T02:04:04.500Z,3.18
2018-01-07T02:05:04.497Z,3.23
2018-01-07T02:06:04.490Z,3.25
2018-01-07T02:07:04.486Z,3.21
2018-01-07T02:08:04.480Z,3.28
2018-01-07T02:09:04.476Z,3.21
2018-01-07T02:10:04.471Z,3.25
2018-01-07T02:11:04.465Z,3.21
2018-01-07T02:12:04.474Z,3.21
2018-01-07T02:13:04.464Z,3.27
2018-01-07T02:14:04.453Z,3.23
2018-01-07T02:15:04.449Z,3.24
2018-01-07T02:16:04.443Z,3.23
2018-01-07T02:17:04.437Z,3.15
2018-01-07T02:18:04.430Z,3.27
2018-01-07T02:19:04.426Z,3.25
2018-01-07T02:20:04.422Z,3.24
2018-01-07T02:21:04.418Z,3.21
2018-01-07T02:22:04.415Z,3.20
2018-01-07T02:23:04.407Z,3.23
2018-01-07T02:24:04.409Z,3.23
2018-01-07T02:25:04.395Z,3.20
2018-01-07T02:26:04.397Z,3.13
2018-01-07T02:27:04.392Z,3.21
2018-01-07T02:28:04.381Z,3.21
2018-01-07T02:29:04.374Z,3.16
2018-01-07T02:30:04.373Z,3.20
2018-01-07T02:31:04.370Z,3.23
2018-01-07T02:32:04.373Z,3.20
2018-01-07T02:33:04.358Z,3.18
2018-01-07T02:34:04.352Z,3.13
2018-01-07T02:35:04.347Z,3.23
2018-01-07T02:36:04.342Z,3.18
2018-01-07T02:37:04.338Z,3.18
2018-01-07T02:38:04.335Z,3.23
2018-01-07T02:39:04.327Z,3.25
2018-01-07T02:40:04.322Z,3.23
2018-01-07T02:41:04.317Z,3.24
2018-01-07T02:42:04.312Z,3.25
2018-01-07T02:43:04.308Z,3.24
2018-01-07T02:44:04.305Z,3.25
2018-01-07T02:45:04.301Z,3.21
2018-01-07T02:46:04.293Z,3.21
2018-01-07T02:47:04.290Z,3.16
2018-01-07T02:48:04.282Z,3.23
2018-01-07T02:49:04.279Z,3.18
2018-01-07T02:50:04.273Z,3.25
2018-01-07T02:51:04.266Z,3.18
2018-01-07T02:52:04.269Z,3.15
2018-01-07T02:53:04.285Z,3.20
2018-01-07T02:54:04.252Z,3.21
2018-01-07T02:55:04.259Z,3.18
2018-01-07T02:56:04.248Z,3.24
2018-01-07T02:57:04.246Z,3.18
2018-01-07T02:58:04.233Z,3.16
2018-01-07T02:59:04.229Z,3.07
2018-01-07T03:00:04.233Z,3.09
2018-01-07T03:01:04.225Z,3.05
2018-01-07T03:02:04.214Z,3.24
2018-01-07T03:03:04.214Z,3.06
2018-01-07T03:04:04.206Z,3.13
2018-01-07T03:05:04.215Z,3.10
2018-01-07T03:06:04.204Z,3.06
2018-01-07T03:07:04.191Z,3.10
2018-01-07T03:08:04.186Z,2.91
2018-01-07T03:09:04.181Z,3.06
2018-01-07T03:10:04.179Z,3.02
2018-01-07T03:11:04.172Z,3.03
2018-01-07T03:12:04.177Z,3.06
2018-01-07T03:13:04.164Z,3.07
2018-01-07T03:14:04.153Z,3.02
2018-01-07T03:15:04.153Z,3.06
2018-01-07T03:16:04.150Z,2.92
2018-01-07T03:17:04.139Z,3.02
2018-01-07T03:18:04.135Z,3.09
2018-01-07T03:19:04.128Z,3.06
2018-01-07T03:20:04.134Z,3.06
2018-01-07T03:21:04.119Z,3.07
2018-01-07T03:22:04.115Z,3.06
2018-01-07T03:23:04.111Z,3.07
2018-01-07T03:24:04.105Z,3.02
2018-01-07T03:25:04.098Z,3.03
2018-01-07T03:26:04.096Z,3.03
2018-01-07T03:27:04.104Z,2.94
2018-01-07T03:28:04.087Z,2.94
2018-01-07T03:29:04.079Z,2.92
2018-01-07T03:30:04.091Z,2.89
2018-01-07T03:31:04.072Z,2.87
2018-01-07T03:32:04.066Z,2.84
2018-01-07T03:33:04.060Z,2.92
2018-01-07T03:34:04.055Z,2.95
2018-01-07T03:35:04.058Z,2.95
2018-01-07T03:36:04.046Z,2.94
2018-01-07T03:37:04.040Z,2.84
2018-01-07T03:38:04.037Z,2.81
2018-01-07T03:39:04.033Z,2.81
2018-01-07T03:40:04.037Z,2.85
2018-01-07T03:41:04.021Z,2.84
2018-01-07T03:42:04.016Z,2.81
2018-01-07T03:43:04.011Z,2.73
2018-01-07T03:44:04.005Z,2.81
2018-01-07T03:45:04.003Z,2.81
2018-01-07T03:46:04.006Z,2.79
2018-01-07T03:47:03.997Z,2.69
2018-01-07T03:48:03.986Z,2.69
2018-01-07T03:49:03.986Z,2.82
2018-01-07T03:50:03.981Z,2.76
2018-01-07T03:51:03.969Z,2.82
2018-01-07T03:52:03.979Z,2.79
2018-01-07T03:53:03.970Z,2.74
2018-01-07T03:54:03.955Z,2.69
2018-01-07T03:55:03.953Z,2.67
2018-01-07T03:56:03.948Z,2.71
2018-01-07T03:57:03.944Z,2.71
2018-01-07T03:58:03.941Z,2.67
2018-01-07T03:59:03.930Z,2.69
2018-01-07T04:00:03.923Z,2.69
2018-01-07T04:01:03.931Z,2.67
2018-01-07T04:02:03.914Z,2.70
2018-01-07T04:03:03.907Z,2.70
2018-01-07T04:04:03.903Z,2.70
2018-01-07T04:05:03.897Z,2.71
2018-01-07T04:06:03.896Z,2.69
2018-01-07T04:07:03.889Z,2.70
2018-01-07T04:08:03.881Z,2.71
2018-01-07T04:09:03.884Z,2.69
2018-01-07T04:10:03.873Z,2.74
2018-01-07T04:11:03.866Z,2.69
2018-01-07T04:12:03.869Z,2.70
2018-01-07T04:13:03.864Z,2.69
2018-01-07T04:14:03.852Z,2.66
2018-01-07T04:15:03.846Z,2.70
2018-01-07T04:16:03.844Z,2.74
2018-01-07T04:17:03.841Z,2.81
2018-01-07T04:18:03.832Z,2.79
2018-01-07T04:19:03.826Z,2.74
2018-01-07T04:20:03.824Z,2.79
2018-01-07T04:21:03.816Z,2.77
2018-01-07T04:22:03.811Z,2.81
2018-01-07T04:23:03.805Z,2.79
2018-01-07T04:24:03.801Z,2.77
2018-01-07T04:25:03.794Z,2.84
2018-01-07T04:26:03.795Z,2.84
2018-01-07T04:27:03.787Z,2.84
2018-01-07T04:28:03.780Z,2.84
2018-01-07T04:29:03.773Z,2.84
2018-01-07T04:30:03.768Z,2.81
2018-01-07T04:31:03.762Z,2.76
2018-01-07T04:32:03.759Z,2.81
2018-01-07T04:33:03.762Z,2.73
2018-01-07T04:34:03.751Z,2.81
2018-01-07T04:35:03.745Z,2.71
2018-01-07T04:36:03.743Z,2.77
2018-01-07T04:37:03.731Z,2.82
2018-01-07T04:38:03.725Z,2.76
2018-01-07T04:39:03.724Z,2.76
2018-01-07T04:40:03.716Z,2.77
2018-01-07T04:41:03.719Z,2.82
2018-01-07T04:42:03.706Z,2.87
2018-01-07T04:43:03.705Z,2.84
2018-01-07T04:44:03.702Z,2.89
2018-01-07T04:45:03.691Z,2.85
2018-01-07T04:46:03.688Z,2.92
2018-01-07T04:47:03.679Z,2.97
2018-01-07T04:48:03.676Z,2.97
2018-01-07T04:49:03.672Z,2.95
2018-01-07T04:50:03.675Z,2.91
2018-01-07T04:51:03.664Z,2.91
2018-01-07T04:52:03.661Z,2.97
2018-01-07T04:53:03.647Z,2.88
2018-01-07T04:54:03.653Z,2.94
2018-01-07T04:55:03.638Z,2.94
2018-01-07T04:56:03.635Z,2.97
2018-01-07T04:57:03.630Z,2.91
2018-01-07T04:58:03.627Z,2.92
2018-01-07T04:59:03.616Z,2.92
2018-01-07T05:00:03.619Z,2.81
2018-01-07T05:01:03.611Z,2.85
2018-01-07T05:02:03.606Z,2.88
2018-01-07T05:03:03.601Z,2.91
2018-01-07T05:04:03.595Z,2.84
2018-01-07T05:05:03.589Z,2.87
2018-01-07T05:06:03.584Z,2.84
2018-01-07T05:07:03.581Z,2.85
2018-01-07T05:08:03.588Z,2.81
2018-01-07T05:09:03.577Z,2.79
2018-01-07T05:10:03.564Z,2.74
2018-01-07T05:11:03.568Z,2.81
2018-01-07T05:12:03.556Z,2.70
2018-01-07T05:13:03.548Z,2.77
2018-01-07T05:14:03.561Z,2.79
2018-01-07T05:15:03.540Z,2.77
2018-01-07T05:16:03.534Z,2.69
2018-01-07T05:17:03.526Z,2.74
2018-01-07T05:18:03.535Z,2.69
2018-01-07T05:19:03.521Z,2.70
2018-01-07T05:20:03.513Z,2.67
2018-01-07T05:21:03.506Z,2.66
2018-01-07T05:22:03.505Z,2.71
2018-01-07T05:23:03.497Z,2.71
2018-01-07T05:24:03.492Z,2.71
2018-01-07T05:25:03.485Z,2.61
2018-01-07T05:26:03.483Z,2.64
2018-01-07T05:27:03.478Z,2.64
2018-01-07T05:28:03.473Z,2.69
2018-01-07T05:29:03.469Z,2.58
2018-01-07T05:30:03.462Z,2.59
2018-01-07T05:31:03.457Z,2.56
2018-01-07T05:32:03.464Z,2.49
2018-01-07T05:33:03.446Z,2.59
2018-01-07T05:34:03.441Z,2.55
2018-01-07T05:35:03.437Z,2.49
2018-01-07T05:36:03.433Z,2.55
2018-01-07T05:37:03.425Z,2.52
2018-01-07T05:38:03.428Z,2.48
2018-01-07T05:39:03.483Z,2.53
2018-01-07T05:40:03.490Z,2.49
2018-01-07T05:41:03.421Z,2.51
2018-01-07T05:42:03.505Z,2.49
2018-01-07T05:43:03.513Z,2.44
2018-01-07T05:44:03.389Z,2.48
2018-01-07T05:45:03.516Z,2.38
2018-01-07T05:46:03.436Z,2.34
2018-01-07T05:47:03.537Z,2.35
2018-01-07T05:48:03.534Z,2.37
2018-01-07T05:49:03.447Z,2.33
2018-01-07T05:50:03.384Z,2.34
2018-01-07T05:51:03.464Z,2.33
2018-01-07T05:52:03.448Z,2.34
2018-01-07T05:53:03.414Z,2.38
2018-01-07T05:54:03.488Z,2.30
2018-01-07T05:55:03.338Z,2.34
2018-01-07T05:56:03.486Z,2.33
2018-01-07T05:57:03.482Z,2.37
2018-01-07T05:58:03.341Z,2.33
2018-01-07T05:59:03.495Z,2.30
2018-01-07T06:00:03.346Z,2.26
2018-01-07T06:01:03.304Z,2.30
2018-01-07T06:02:03.297Z,2.34
2018-01-07T06:03:03.291Z,2.38
2018-01-07T06:04:03.283Z,2.37
2018-01-07T06:05:03.281Z,2.37
2018-01-07T06:06:03.275Z,2.31
2018-01-07T06:07:03.269Z,2.34
2018-01-07T06:08:03.265Z,2.37
2018-01-07T06:09:03.269Z,2.33
2018-01-07T06:10:03.255Z,2.22
2018-01-07T06:11:03.250Z,2.30
2018-01-07T06:12:03.242Z,2.23
2018-01-07T06:13:03.235Z,2.26
2018-01-07T06:14:03.239Z,2.19
2018-01-07T06:15:03.225Z,2.27
2018-01-07T06:16:03.219Z,2.26
2018-01-07T06:17:03.219Z,2.20
2018-01-07T06:18:03.211Z,2.23
2018-01-07T06:19:03.217Z,2.16
2018-01-07T06:20:03.208Z,2.27
2018-01-07T06:21:03.216Z,2.26
2018-01-07T06:22:03.189Z,2.19
2018-01-07T06:23:03.186Z,2.16
2018-01-07T06:24:03.179Z,2.13
2018-01-07T06:25:03.178Z,2.17
2018-01-07T06:26:03.171Z,2.22
2018-01-07T06:27:03.162Z,2.20
2018-01-07T06:28:03.159Z,2.28
2018-01-07T06:29:03.152Z,2.13
2018-01-07T06:30:03.150Z,2.16
2018-01-07T06:31:03.143Z,2.13
2018-01-07T06:32:03.146Z,2.16
2018-01-07T06:33:03.158Z,2.17
2018-01-07T06:34:03.128Z,2.19
2018-01-07T06:35:03.120Z,2.13
2018-01-07T06:36:03.118Z,2.17
2018-01-07T06:37:03.111Z,2.20
2018-01-07T06:38:03.106Z,2.17
2018-01-07T06:39:03.109Z,2.22
2018-01-07T06:40:03.090Z,2.28
2018-01-07T06:41:03.099Z,2.31
2018-01-07T06:42:03.112Z,2.22
2018-01-07T06:43:03.076Z,2.20
2018-01-07T06:44:03.073Z,2.33
2018-01-07T06:45:03.068Z,2.28
2018-01-07T06:46:03.063Z,2.27
2018-01-07T06:47:03.051Z,2.26
2018-01-07T06:48:03.049Z,2.19
2018-01-07T06:49:03.043Z,2.20
2018-01-07T06:50:03.041Z,2.19
2018-01-07T06:51:03.041Z,2.26
2018-01-07T06:52:03.026Z,2.19
2018-01-07T06:53:03.019Z,2.15
2018-01-07T06:54:03.069Z,2.16
2018-01-07T06:55:03.011Z,2.12
2018-01-07T06:56:03.026Z,2.12
2018-01-07T06:57:02.998Z,2.17
2018-01-07T06:58:02.997Z,2.23
2018-01-07T06:59:02.983Z,2.28
2018-01-07T07:00:02.980Z,2.26
2018-01-07T07:01:02.987Z,2.17
2018-01-07T07:02:02.972Z,2.20
2018-01-07T07:03:02.967Z,2.13
2018-01-07T07:04:02.960Z,2.17
2018-01-07T07:05:02.953Z,2.17
2018-01-07T07:06:02.950Z,2.19
2018-01-07T07:07:02.941Z,2.17
2018-01-07T07:08:02.938Z,2.15
2018-01-07T07:09:02.935Z,2.15
2018-01-07T07:10:02.925Z,2.04
2018-01-07T07:11:02.919Z,2.01
2018-01-07T07:12:02.919Z,2.06
2018-01-07T07:13:02.913Z,2.08
2018-01-07T07:14:02.911Z,2.09
2018-01-07T07:15:02.900Z,2.08
2018-01-07T07:16:02.905Z,2.04
2018-01-07T07:17:02.893Z,2.04
2018-01-07T07:18:02.881Z,1.98
2018-01-07T07:19:02.876Z,2.08
2018-01-07T07:20:02.895Z,2.02
2018-01-07T07:21:02.865Z,1.98
2018-01-07T07:22:02.864Z,2.02
2018-01-07T07:23:02.861Z,1.99
2018-01-07T07:24:02.861Z,1.93
2018-01-07T07:25:02.847Z,1.91
2018-01-07T07:26:02.855Z,1.89
2018-01-07T07:27:02.834Z,1.89
2018-01-07T07:28:02.851Z,1.89
2018-01-07T07:29:02.821Z,1.89
2018-01-07T07:30:02.815Z,1.90
2018-01-07T07:31:02.824Z,1.91
2018-01-07T07:32:02.806Z,1.79
2018-01-07T07:33:02.797Z,1.80
2018-01-07T07:34:02.793Z,1.80
2018-01-07T07:35:02.787Z,1.75
2018-01-07T07:36:02.783Z,1.76
2018-01-07T07:37:02.777Z,1.80
2018-01-07T07:38:02.773Z,1.71
2018-01-07T07:39:02.768Z,1.80
2018-01-07T07:40:02.770Z,1.78
2018-01-07T07:41:02.754Z,1.90
2018-01-07T07:42:02.752Z,1.75
2018-01-07T07:43:02.743Z,1.75
2018-01-07T07:44:02.741Z,1.83
2018-01-07T07:45:02.732Z,1.68
2018-01-07T07:46:02.724Z,1.76
2018-01-07T07:47:02.722Z,1.76
2018-01-07T07:48:02.732Z,1.75
2018-01-07T07:49:02.710Z,1.72
2018-01-07T07:50:02.711Z,1.79
2018-01-07T07:51:02.705Z,1.76
2018-01-07T07:52:02.757Z,1.82
2018-01-07T07:53:02.685Z,1.80
2018-01-07T07:54:02.681Z,1.75
2018-01-07T07:55:02.675Z,1.79
2018-01-07T07:56:02.668Z,1.72
2018-01-07T07:57:02.662Z,1.62
2018-01-07T07:58:02.659Z,1.62
2018-01-07T07:59:02.653Z,1.62
2018-01-07T08:00:02.668Z,1.75
2018-01-07T08:01:02.645Z,1.72
2018-01-07T08:02:02.633Z,1.65
2018-01-07T08:03:02.630Z,1.72
2018-01-07T08:04:02.627Z,1.72
2018-01-07T08:05:02.654Z,1.71
2018-01-07T08:06:02.610Z,1.80
2018-01-07T08:07:02.605Z,1.65
2018-01-07T08:08:02.608Z,1.68
2018-01-07T08:09:02.608Z,1.72
2018-01-07T08:10:02.590Z,1.62
2018-01-07T08:11:02.586Z,1.75
2018-01-07T08:12:02.578Z,1.65
2018-01-07T08:13:02.616Z,1.69
2018-01-07T08:14:02.585Z,1.65
2018-01-07T08:15:02.566Z,1.72
2018-01-07T08:16:02.557Z,1.76
2018-01-07T08:17:02.548Z,1.69
2018-01-07T08:18:02.542Z,1.65
2018-01-07T08:19:02.536Z,1.65
2018-01-07T08:20:02.535Z,1.71
2018-01-07T08:21:02.525Z,1.64
2018-01-07T08:22:02.517Z,1.65
2018-01-07T08:23:02.515Z,1.68
2018-01-07T08:24:02.508Z,1.68
2018-01-07T08:25:02.527Z,1.68
2018-01-07T08:26:02.496Z,1.71
2018-01-07T08:27:02.513Z,1.72
2018-01-07T08:28:02.519Z,1.65
2018-01-07T08:29:02.499Z,1.68
2018-01-07T08:30:02.472Z,1.52
2018-01-07T08:31:02.468Z,1.61
2018-01-07T08:32:02.464Z,1.58
2018-01-07T08:33:02.453Z,1.54
2018-01-07T08:34:02.466Z,1.60
2018-01-07T08:35:02.445Z,1.60
2018-01-07T08:36:02.436Z,1.60
2018-01-07T08:37:02.430Z,1.52
2018-01-07T08:38:02.427Z,1.60
2018-01-07T08:39:02.422Z,1.55
2018-01-07T08:40:02.414Z,1.55
2018-01-07T08:41:02.410Z,1.61
2018-01-07T08:42:02.420Z,1.62
2018-01-07T08:43:02.403Z,1.61
2018-01-07T08:44:02.414Z,1.69
2018-01-07T08:45:02.413Z,1.65
2018-01-07T08:46:02.378Z,1.68
2018-01-07T08:47:02.373Z,1.61
2018-01-07T08:48:02.370Z,1.55
2018-01-07T08:49:02.361Z,1.64
2018-01-07T08:50:02.358Z,1.61
2018-01-07T08:51:02.359Z,1.54
2018-01-07T08:52:02.346Z,1.61
2018-01-07T08:53:02.340Z,1.64
2018-01-07T08:54:02.332Z,1.64
2018-01-07T08:55:02.334Z,1.69
2018-01-07T08:56:02.346Z,1.60
2018-01-07T08:57:02.315Z,1.60
2018-01-07T08:58:02.313Z,1.58
2018-01-07T08:59:02.321Z,1.60
2018-01-07T09:00:02.359Z,1.55
2018-01-07T09:01:02.330Z,1.57
2018-01-07T09:02:02.289Z,1.52
2018-01-07T09:03:02.281Z,1.54
2018-01-07T09:04:02.277Z,1.55
2018-01-07T09:05:02.270Z,1.52
2018-01-07T09:06:02.262Z,1.52
2018-01-07T09:07:02.254Z,1.51
2018-01-07T09:08:02.257Z,1.51
2018-01-07T09:09:02.243Z,1.52
2018-01-07T09:10:02.245Z,1.52
2018-01-07T09:11:02.236Z,1.58
2018-01-07T09:12:02.225Z,1.55
2018-01-07T09:13:02.229Z,1.52
2018-01-07T09:14:02.211Z,1.57
2018-01-07T09:15:02.229Z,1.57
2018-01-07T09:16:02.224Z,1.52
2018-01-07T09:17:02.196Z,1.47
2018-01-07T09:18:02.184Z,1.60
2018-01-07T09:19:02.178Z,1.47
2018-01-07T09:20:02.173Z,1.58
2018-01-07T09:21:02.166Z,1.54
2018-01-07T09:22:02.160Z,1.46
2018-01-07T09:23:02.158Z,1.52
2018-01-07T09:24:02.147Z,1.51
2018-01-07T09:25:02.142Z,1.52
2018-01-07T09:26:02.138Z,1.46
2018-01-07T09:27:02.133Z,1.51
2018-01-07T09:28:02.127Z,1.58
2018-01-07T09:29:02.118Z,1.54
2018-01-07T09:30:02.113Z,1.60
2018-01-07T09:31:02.108Z,1.57
2018-01-07T09:32:02.100Z,1.52
2018-01-07T09:33:02.092Z,1.54
2018-01-07T09:34:02.098Z,1.54
2018-01-07T09:35:02.082Z,1.55
2018-01-07T09:36:02.076Z,1.54
2018-01-07T09:37:02.068Z,1.57
2018-01-07T09:38:02.061Z,1.52
2018-01-07T09:39:02.059Z,1.46
2018-01-07T09:40:02.048Z,1.51
2018-01-07T09:41:02.042Z,1.47
2018-01-07T09:42:02.037Z,1.55
2018-01-07T09:43:02.032Z,1.51
2018-01-07T09:44:02.027Z,1.46
2018-01-07T09:45:02.017Z,1.54
2018-01-07T09:46:02.020Z,1.43
2018-01-07T09:47:02.038Z,1.42
2018-01-07T09:48:02.000Z,1.40
2018-01-07T09:49:01.998Z,1.37
2018-01-07T09:50:01.987Z,1.36
2018-01-07T09:51:01.979Z,1.37
2018-01-07T09:52:01.995Z,1.39
2018-01-07T09:53:01.991Z,1.40
2018-01-07T09:54:01.962Z,1.46
2018-01-07T09:55:01.954Z,1.44
2018-01-07T09:56:01.948Z,1.43
2018-01-07T09:57:01.954Z,1.37
2018-01-07T09:58:01.939Z,1.37
2018-01-07T09:59:01.934Z,1.39
2018-01-07T10:00:01.930Z,1.46
2018-01-07T10:01:01.917Z,1.40
2018-01-07T10:02:01.913Z,1.50
2018-01-07T10:03:01.904Z,1.52
2018-01-07T10:04:01.899Z,1.52
2018-01-07T10:05:01.893Z,1.57
2018-01-07T10:06:01.896Z,1.58
2018-01-07T10:07:01.878Z,1.55
2018-01-07T10:08:01.872Z,1.55
2018-01-07T10:09:01.866Z,1.51
2018-01-07T10:10:01.863Z,1.58
2018-01-07T10:11:01.859Z,1.58
2018-01-07T10:12:01.852Z,1.40
2018-01-07T10:13:01.842Z,1.44
2018-01-07T10:14:01.835Z,1.58
2018-01-07T10:15:01.831Z,1.51
2018-01-07T10:16:01.824Z,1.47
2018-01-07T10:17:01.818Z,1.47
2018-01-07T10:18:01.812Z,1.46
2018-01-07T10:19:01.806Z,1.37
2018-01-07T10:20:01.800Z,1.39
2018-01-07T10:21:01.792Z,1.43
2018-01-07T10:22:01.785Z,1.32
2018-01-07T10:23:01.779Z,1.39
2018-01-07T10:24:01.773Z,1.40
2018-01-07T10:25:01.779Z,1.40
2018-01-07T10:26:01.761Z,1.37
2018-01-07T10:27:01.761Z,1.32
2018-01-07T10:28:01.751Z,1.39
2018-01-07T10:29:01.790Z,1.37
2018-01-07T10:30:01.738Z,1.33
2018-01-07T10:31:01.730Z,1.29
2018-01-07T10:32:01.725Z,1.28
2018-01-07T10:33:01.740Z,1.32
2018-01-07T10:34:01.711Z,1.25
2018-01-07T10:35:01.705Z,1.28
2018-01-07T10:36:01.701Z,1.26
2018-01-07T10:37:01.702Z,1.26
2018-01-07T10:38:01.685Z,1.33
2018-01-07T10:39:01.682Z,1.32
2018-01-07T10:40:01.672Z,1.34
2018-01-07T10:41:01.668Z,1.36
2018-01-07T10:42:01.662Z,1.39
2018-01-07T10:43:01.657Z,1.42
2018-01-07T10:44:01.648Z,1.40
2018-01-07T10:45:01.641Z,1.47
2018-01-07T10:46:01.643Z,1.50
2018-01-07T10:47:01.627Z,1.43
2018-01-07T10:48:01.628Z,1.51
2018-01-07T10:49:01.616Z,1.51
2018-01-07T10:50:01.615Z,1.36
2018-01-07T10:51:01.608Z,1.42
2018-01-07T10:52:01.600Z,1.43
2018-01-07T10:53:01.592Z,1.46
2018-01-07T10:54:01.586Z,1.43
2018-01-07T10:55:01.578Z,1.46
2018-01-07T10:56:01.597Z,1.47
2018-01-07T10:57:01.580Z,1.37
2018-01-07T10:58:01.562Z,1.36
2018-01-07T10:59:01.555Z,1.37
2018-01-07T11:00:01.548Z,1.37
2018-01-07T11:01:01.559Z,1.40
2018-01-07T11:02:01.535Z,1.36
2018-01-07T11:03:01.529Z,1.42
2018-01-07T11:04:01.522Z,1.39
2018-01-07T11:05:01.520Z,1.47
2018-01-07T11:06:01.550Z,1.37
2018-01-07T11:07:01.508Z,1.40
2018-01-07T11:08:01.515Z,1.42
2018-01-07T11:09:01.502Z,1.39
2018-01-07T11:10:01.494Z,1.42
2018-01-07T11:11:01.480Z,1.42
2018-01-07T11:12:01.474Z,1.37
2018-01-07T11:13:01.466Z,1.39
2018-01-07T11:14:01.459Z,1.37
2018-01-07T11:15:01.453Z,1.42
2018-01-07T11:16:01.447Z,1.52
2018-01-07T11:17:01.440Z,1.36
2018-01-07T11:18:01.435Z,1.43
2018-01-07T11:19:01.482Z,1.44
2018-01-07T11:20:01.432Z,1.50
2018-01-07T11:21:01.419Z,1.50
2018-01-07T11:22:01.407Z,1.36
2018-01-07T11:23:01.411Z,1.42
2018-01-07T11:24:01.396Z,1.39
2018-01-07T11:25:01.391Z,1.37
2018-01-07T11:26:01.384Z,1.40
2018-01-07T11:27:01.390Z,1.32
2018-01-07T11:28:01.374Z,1.33
2018-01-07T11:29:01.366Z,1.36
2018-01-07T11:30:01.362Z,1.34
2018-01-07T11:31:01.355Z,1.44
2018-01-07T11:32:01.348Z,1.51
2018-01-07T11:33:01.342Z,1.50
2018-01-07T11:34:01.335Z,1.46
2018-01-07T11:35:01.328Z,1.43
2018-01-07T11:36:01.324Z,1.39
2018-01-07T11:37:01.316Z,1.37
2018-01-07T11:38:01.311Z,1.36
2018-01-07T11:39:01.307Z,1.39
2018-01-07T11:40:01.298Z,1.42
2018-01-07T11:41:01.292Z,1.37
2018-01-07T11:42:01.289Z,1.39
2018-01-07T11:43:01.278Z,1.39
2018-01-07T11:44:01.276Z,1.28
2018-01-07T11:45:01.269Z,1.39
2018-01-07T11:46:01.257Z,1.37
2018-01-07T11:47:01.254Z,1.39
2018-01-07T11:48:01.251Z,1.29
2018-01-07T11:49:01.241Z,1.39
2018-01-07T11:50:01.236Z,1.34
2018-01-07T11:51:01.234Z,1.36
2018-01-07T11:52:01.223Z,1.32
2018-01-07T11:53:01.218Z,1.39
2018-01-07T11:54:01.215Z,1.36
2018-01-07T11:55:01.205Z,1.37
2018-01-07T11:56:01.199Z,1.32
2018-01-07T11:57:01.240Z,1.37
2018-01-07T11:58:01.196Z,1.32
2018-01-07T11:59:01.180Z,1.36
2018-01-07T12:00:01.284Z,1.37
2018-01-07T12:01:01.166Z,1.34
2018-01-07T12:02:01.184Z,1.36
2018-01-07T12:03:01.165Z,1.34
2018-01-07T12:04:01.155Z,1.33
2018-01-07T12:05:01.143Z,1.33
2018-01-07T12:06:01.135Z,1.29
2018-01-07T12:07:01.132Z,1.26
2018-01-07T12:08:01.122Z,1.26
2018-01-07T12:09:01.118Z,1.33
2018-01-07T12:10:01.119Z,1.28
2018-01-07T12:11:01.104Z,1.32
2018-01-07T12:12:01.096Z,1.34
2018-01-07T12:13:01.092Z,1.26
2018-01-07T12:14:01.086Z,1.24
2018-01-07T12:15:01.078Z,1.25
2018-01-07T12:16:01.082Z,1.28
2018-01-07T12:17:01.088Z,1.21
2018-01-07T12:18:01.059Z,1.28
2018-01-07T12:19:01.073Z,1.33
2018-01-07T12:20:01.051Z,1.25
2018-01-07T12:21:01.050Z,1.32
2018-01-07T12:22:01.034Z,1.32
2018-01-07T12:23:01.039Z,1.25
2018-01-07T12:24:01.024Z,1.29
2018-01-07T12:25:01.014Z,1.28
2018-01-07T12:26:01.021Z,1.39
2018-01-07T12:27:01.005Z,1.26
2018-01-07T12:28:00.997Z,1.34
2018-01-07T12:29:01.006Z,1.26
2018-01-07T12:30:00.986Z,1.29
2018-01-07T12:31:00.975Z,1.26
2018-01-07T12:32:00.970Z,1.28
2018-01-07T12:33:00.970Z,1.24
2018-01-07T12:34:00.966Z,1.26
2018-01-07T12:35:00.956Z,1.28
2018-01-07T12:36:00.944Z,1.26
2018-01-07T12:37:00.934Z,1.34
2018-01-07T12:38:00.940Z,1.34
2018-01-07T12:39:00.930Z,1.34
2018-01-07T12:40:00.925Z,1.29
2018-01-07T12:41:00.918Z,1.36
2018-01-07T12:42:00.906Z,1.32
2018-01-07T12:43:00.899Z,1.29
2018-01-07T12:44:00.894Z,1.34
2018-01-07T12:45:00.912Z,1.36
2018-01-07T12:46:00.908Z,1.28
2018-01-07T12:47:00.871Z,1.29
2018-01-07T12:48:00.892Z,1.32
2018-01-07T12:49:00.883Z,1.34
2018-01-07T12:50:00.863Z,1.42
2018-01-07T12:51:00.860Z,1.39
2018-01-07T12:52:00.851Z,1.37
2018-01-07T12:53:00.833Z,1.44
2018-01-07T12:54:00.829Z,1.50
2018-01-07T12:55:00.832Z,1.50
2018-01-07T12:56:00.813Z,1.55
2018-01-07T12:57:00.818Z,1.44
2018-01-07T12:58:00.805Z,1.47
2018-01-07T12:59:00.819Z,1.52
2018-01-07T13:00:00.793Z,1.50
2018-01-07T13:01:00.782Z,1.44
2018-01-07T13:02:00.780Z,1.51
2018-01-07T13:03:00.780Z,1.44
2018-01-07T13:04:00.779Z,1.57
2018-01-07T13:05:00.759Z,1.58
2018-01-07T13:06:00.755Z,1.54
2018-01-07T13:07:00.745Z,1.54
2018-01-07T13:08:00.741Z,1.47
2018-01-07T13:09:00.736Z,1.54
2018-01-07T13:10:00.744Z,1.55
2018-01-07T13:11:00.730Z,1.54
2018-01-07T13:12:00.715Z,1.54
2018-01-07T13:13:00.708Z,1.42
2018-01-07T13:14:00.705Z,1.36
2018-01-07T13:15:00.707Z,1.40
2018-01-07T13:16:00.690Z,1.46
2018-01-07T13:17:00.685Z,1.51
2018-01-07T13:18:00.684Z,1.44